sensor_id;sensor_type;location;lat;lon;timestamp;P1;durP1;ratioP1;P2;durP2;ratioP2
75914;SDS011;64593;51.050;13.780;2023-06-19T08:24:16;13.23;;;7.32;;
75914;SDS011;64593;51.050;13.780;2023-06-19T08:29:24;9.82;;;5.65;;
75914;SDS011;64593;51.050;13.780;2023-06-19T08:34:26;6.75;;;4.47;;
75914;SDS011;64593;51.050;13.780;2023-06-19T08:39:27;10.32;;;5.00;;
75914;SDS011;64593;51.050;13.780;2023-06-19T08:44:32;9.38;;;4.85;;
75914;SDS011;64593;51.050;13.780;2023-06-19T08:49:39;10.35;;;5.07;;
75914;SDS011;64593;51.050;13.780;2023-06-19T08:54:43;7.97;;;5.75;;
75914;SDS011;64593;51.050;13.780;2023-06-19T08:59:49;11.05;;;5.57;;
75914;SDS011;64593;51.050;13.780;2023-06-19T09:04:53;6.63;;;3.95;;
75914;SDS011;64593;51.050;13.780;2023-06-19T09:09:55;9.05;;;5.50;;
75914;SDS011;64593;51.050;13.780;2023-06-19T09:14:59;6.95;;;5.22;;
75914;SDS011;64593;51.050;13.780;2023-06-19T09:20:05;11.38;;;5.13;;
75914;SDS011;64593;51.050;13.780;2023-06-19T09:25:08;11.48;;;5.53;;
75914;SDS011;64593;51.050;13.780;2023-06-19T09:30:15;9.30;;;5.25;;
75914;SDS011;64593;51.050;13.780;2023-06-19T09:35:21;10.20;;;4.60;;
75914;SDS011;64593;51.050;13.780;2023-06-19T09:40:32;11.43;;;4.68;;
75914;SDS011;64593;51.050;13.780;2023-06-19T09:45:46;9.18;;;6.10;;
75914;SDS011;64593;51.050;13.780;2023-06-19T09:50:51;9.55;;;5.75;;
75914;SDS011;64593;51.050;13.780;2023-06-19T09:55:58;10.98;;;5.80;;
75914;SDS011;64593;51.050;13.780;2023-06-19T10:01:00;11.65;;;5.65;;
75914;SDS011;64593;51.050;13.780;2023-06-19T10:06:03;8.50;;;4.97;;
75914;SDS011;64593;51.050;13.780;2023-06-19T10:11:06;8.10;;;5.30;;
75914;SDS011;64593;51.050;13.780;2023-06-19T10:16:21;11.80;;;5.38;;
75914;SDS011;64593;51.050;13.780;2023-06-19T10:21:24;8.13;;;5.07;;
75914;SDS011;64593;51.050;13.780;2023-06-19T10:26:32;6.22;;;4.88;;
75914;SDS011;64593;51.050;13.780;2023-06-19T10:32:00;7.55;;;4.10;;
75914;SDS011;64593;51.050;13.780;2023-06-19T10:37:08;8.90;;;5.57;;
75914;SDS011;64593;51.050;13.780;2023-06-19T10:42:11;7.20;;;5.55;;
75914;SDS011;64593;51.050;13.780;2023-06-19T10:47:14;11.75;;;5.50;;
75914;SDS011;64593;51.050;13.780;2023-06-19T10:52:18;7.78;;;5.75;;
75914;SDS011;64593;51.050;13.780;2023-06-19T10:57:29;7.75;;;6.18;;
75914;SDS011;64593;51.050;13.780;2023-06-19T11:02:31;13.02;;;5.78;;
75914;SDS011;64593;51.050;13.780;2023-06-19T11:07:33;7.53;;;5.57;;
75914;SDS011;64593;51.050;13.780;2023-06-19T11:12:35;9.43;;;5.38;;
75914;SDS011;64593;51.050;13.780;2023-06-19T11:17:37;5.30;;;3.33;;
75914;SDS011;64593;51.050;13.780;2023-06-19T11:22:45;10.32;;;5.75;;
75914;SDS011;64593;51.050;13.780;2023-06-19T11:27:47;6.65;;;5.00;;
75914;SDS011;64593;51.050;13.780;2023-06-19T11:32:59;8.15;;;5.63;;
75914;SDS011;64593;51.050;13.780;2023-06-19T11:38:06;7.45;;;4.82;;
75914;SDS011;64593;51.050;13.780;2023-06-19T11:43:34;6.25;;;3.90;;
75914;SDS011;64593;51.050;13.780;2023-06-19T11:48:36;8.90;;;5.45;;
75914;SDS011;64593;51.050;13.780;2023-06-19T11:54:05;9.38;;;5.60;;
75914;SDS011;64593;51.050;13.780;2023-06-19T11:59:13;7.63;;;5.30;;
75914;SDS011;64593;51.050;13.780;2023-06-19T12:04:15;8.05;;;4.93;;
75914;SDS011;64593;51.050;13.780;2023-06-19T12:09:43;4.85;;;3.80;;
75914;SDS011;64593;51.050;13.780;2023-06-19T12:15:10;6.10;;;3.97;;
75914;SDS011;64593;51.050;13.780;2023-06-19T12:20:37;7.30;;;5.80;;
75914;SDS011;64593;51.050;13.780;2023-06-19T12:26:01;6.85;;;5.07;;
75914;SDS011;64593;51.050;13.780;2023-06-19T12:31:04;5.88;;;4.70;;
75914;SDS011;64593;51.050;13.780;2023-06-19T12:36:11;6.88;;;4.25;;
75914;SDS011;64593;51.050;13.780;2023-06-19T12:41:41;7.95;;;4.55;;
75914;SDS011;64593;51.050;13.780;2023-06-19T12:47:08;6.88;;;4.78;;
75914;SDS011;64593;51.050;13.780;2023-06-19T12:52:58;8.05;;;3.22;;
75914;SDS011;64593;51.050;13.780;2023-06-19T12:58:00;7.32;;;3.90;;
75914;SDS011;64593;51.050;13.780;2023-06-19T13:03:04;7.13;;;4.78;;
75914;SDS011;64593;51.050;13.780;2023-06-19T13:08:06;5.75;;;3.00;;
75914;SDS011;64593;51.050;13.780;2023-06-19T13:13:08;5.32;;;3.90;;
75914;SDS011;64593;51.050;13.780;2023-06-19T13:18:14;6.05;;;3.78;;
75914;SDS011;64593;51.050;13.780;2023-06-19T13:23:19;8.30;;;4.35;;
75914;SDS011;64593;51.050;13.780;2023-06-19T13:28:21;6.22;;;4.03;;
75914;SDS011;64593;51.050;13.780;2023-06-19T13:33:23;6.10;;;3.70;;
75914;SDS011;64593;51.050;13.780;2023-06-19T13:38:27;8.48;;;5.60;;
75914;SDS011;64593;51.050;13.780;2023-06-19T13:43:54;7.13;;;5.32;;
75914;SDS011;64593;51.050;13.780;2023-06-19T13:49:21;12.32;;;6.55;;
75914;SDS011;64593;51.050;13.780;2023-06-19T13:54:22;7.80;;;6.10;;
75914;SDS011;64593;51.050;13.780;2023-06-19T13:59:52;9.48;;;6.15;;
75914;SDS011;64593;51.050;13.780;2023-06-19T14:04:54;14.18;;;6.95;;
75914;SDS011;64593;51.050;13.780;2023-06-19T14:09:55;10.30;;;4.78;;
75914;SDS011;64593;51.050;13.780;2023-06-19T14:15:22;9.50;;;4.82;;
75914;SDS011;64593;51.050;13.780;2023-06-19T14:20:49;10.57;;;5.95;;
75914;SDS011;64593;51.050;13.780;2023-06-19T14:26:16;11.35;;;6.38;;
75914;SDS011;64593;51.050;13.780;2023-06-19T14:31:18;9.70;;;6.30;;
75914;SDS011;64593;51.050;13.780;2023-06-19T14:36:19;8.70;;;5.95;;
75914;SDS011;64593;51.050;13.780;2023-06-19T14:41:46;14.07;;;6.50;;
75914;SDS011;64593;51.050;13.780;2023-06-19T14:46:48;12.43;;;8.52;;
75914;SDS011;64593;51.050;13.780;2023-06-19T14:51:51;11.23;;;6.25;;
75914;SDS011;64593;51.050;13.780;2023-06-19T14:57:00;7.93;;;6.47;;
75914;SDS011;64593;51.050;13.780;2023-06-19T15:02:02;17.45;;;6.75;;
75914;SDS011;64593;51.050;13.780;2023-06-19T15:07:04;14.18;;;7.30;;
75914;SDS011;64593;51.050;13.780;2023-06-19T15:12:07;13.02;;;7.97;;
75914;SDS011;64593;51.050;13.780;2023-06-19T15:17:34;12.60;;;6.88;;
75914;SDS011;64593;51.050;13.780;2023-06-19T15:22:36;9.13;;;6.25;;
75914;SDS011;64593;51.050;13.780;2023-06-19T15:28:03;12.50;;;6.88;;
75914;SDS011;64593;51.050;13.780;2023-06-19T15:33:04;11.95;;;5.40;;
75914;SDS011;64593;51.050;13.780;2023-06-19T15:38:06;15.10;;;7.28;;
75914;SDS011;64593;51.050;13.780;2023-06-19T15:43:08;9.18;;;6.40;;
75914;SDS011;64593;51.050;13.780;2023-06-19T15:48:35;13.93;;;7.38;;
75914;SDS011;64593;51.050;13.780;2023-06-19T15:53:37;12.45;;;7.00;;
75914;SDS011;64593;51.050;13.780;2023-06-19T15:58:40;15.15;;;6.95;;
75914;SDS011;64593;51.050;13.780;2023-06-19T16:03:42;13.00;;;7.63;;
75914;SDS011;64593;51.050;13.780;2023-06-19T16:09:09;12.25;;;6.82;;
75914;SDS011;64593;51.050;13.780;2023-06-19T16:14:11;12.93;;;7.15;;
75914;SDS011;64593;51.050;13.780;2023-06-19T16:19:12;12.70;;;7.45;;
75914;SDS011;64593;51.050;13.780;2023-06-19T16:24:14;10.15;;;7.20;;
75914;SDS011;64593;51.050;13.780;2023-06-19T16:29:16;12.57;;;7.60;;
75914;SDS011;64593;51.050;13.780;2023-06-19T16:34:18;12.18;;;5.90;;
75914;SDS011;64593;51.050;13.780;2023-06-19T16:39:19;10.25;;;7.38;;
75914;SDS011;64593;51.050;13.780;2023-06-19T16:44:46;13.27;;;7.07;;
75914;SDS011;64593;51.050;13.780;2023-06-19T16:50:13;9.77;;;6.93;;
75914;SDS011;64593;51.050;13.780;2023-06-19T16:55:40;15.40;;;7.68;;
75914;SDS011;64593;51.050;13.780;2023-06-19T17:00:42;9.93;;;7.20;;
75914;SDS011;64593;51.050;13.780;2023-06-19T17:06:09;15.10;;;8.05;;
75914;SDS011;64593;51.050;13.780;2023-06-19T17:11:36;11.52;;;8.15;;
75914;SDS011;64593;51.050;13.780;2023-06-19T17:23:20;12.82;;;7.55;;
75914;SDS011;64593;51.050;13.780;2023-06-19T17:28:48;9.25;;;6.85;;
75914;SDS011;64593;51.050;13.780;2023-06-19T17:34:21;10.43;;;7.57;;
75914;SDS011;64593;51.050;13.780;2023-06-19T17:39:51;11.95;;;6.43;;
75914;SDS011;64593;51.050;13.780;2023-06-19T17:45:18;11.27;;;6.78;;
75914;SDS011;64593;51.050;13.780;2023-06-19T17:50:45;10.18;;;7.22;;
75914;SDS011;64593;51.050;13.780;2023-06-19T17:55:50;12.90;;;8.63;;
75914;SDS011;64593;51.050;13.780;2023-06-19T18:01:21;12.30;;;7.78;;
75914;SDS011;64593;51.050;13.780;2023-06-19T18:06:25;13.68;;;8.05;;
75914;SDS011;64593;51.050;13.780;2023-06-19T18:12:15;10.10;;;7.75;;
75914;SDS011;64593;51.050;13.780;2023-06-19T18:17:32;10.13;;;7.05;;
75914;SDS011;64593;51.050;13.780;2023-06-19T18:22:49;12.95;;;8.27;;
75914;SDS011;64593;51.050;13.780;2023-06-19T18:28:09;13.52;;;7.78;;
75914;SDS011;64593;51.050;13.780;2023-06-19T18:33:20;10.20;;;7.97;;
75914;SDS011;64593;51.050;13.780;2023-06-19T18:38:25;14.32;;;8.63;;
75914;SDS011;64593;51.050;13.780;2023-06-19T18:43:42;16.85;;;9.07;;
75914;SDS011;64593;51.050;13.780;2023-06-19T18:48:44;12.90;;;9.50;;
75914;SDS011;64593;51.050;13.780;2023-06-19T18:54:15;14.80;;;9.80;;
75914;SDS011;64593;51.050;13.780;2023-06-19T18:59:25;17.08;;;9.77;;
75914;SDS011;64593;51.050;13.780;2023-06-19T19:10:36;13.88;;;9.13;;
75914;SDS011;64593;51.050;13.780;2023-06-19T19:15:53;11.50;;;9.07;;
75914;SDS011;64593;51.050;13.780;2023-06-19T19:32:19;16.63;;;10.80;;
75914;SDS011;64593;51.050;13.780;2023-06-19T19:38:48;14.40;;;9.90;;
75914;SDS011;64593;51.050;13.780;2023-06-19T19:43:55;14.52;;;9.55;;
75914;SDS011;64593;51.050;13.780;2023-06-19T19:49:22;11.85;;;9.18;;
75914;SDS011;64593;51.050;13.780;2023-06-19T19:54:50;13.85;;;10.05;;
75914;SDS011;64593;51.050;13.780;2023-06-19T20:00:17;13.95;;;8.90;;
75914;SDS011;64593;51.050;13.780;2023-06-19T20:05:33;13.30;;;9.57;;
75914;SDS011;64593;51.050;13.780;2023-06-19T20:11:19;12.52;;;9.45;;
75914;SDS011;64593;51.050;13.780;2023-06-19T20:16:21;12.38;;;9.70;;
75914;SDS011;64593;51.050;13.780;2023-06-19T20:21:48;17.40;;;8.75;;
75914;SDS011;64593;51.050;13.780;2023-06-19T20:26:53;11.80;;;9.40;;
75914;SDS011;64593;51.050;13.780;2023-06-19T20:32:22;11.65;;;9.40;;
75914;SDS011;64593;51.050;13.780;2023-06-19T20:37:51;13.00;;;9.27;;
75914;SDS011;64593;51.050;13.780;2023-06-19T20:43:21;10.55;;;8.63;;
75914;SDS011;64593;51.050;13.780;2023-06-19T20:48:29;10.93;;;8.45;;
75914;SDS011;64593;51.050;13.780;2023-06-19T20:54:15;12.65;;;9.57;;
75914;SDS011;64593;51.050;13.780;2023-06-19T20:59:42;12.98;;;9.25;;
75914;SDS011;64593;51.050;13.780;2023-06-19T21:04:46;12.77;;;9.13;;
75914;SDS011;64593;51.050;13.780;2023-06-19T21:09:48;13.85;;;9.60;;
75914;SDS011;64593;51.050;13.780;2023-06-19T21:15:15;11.05;;;9.00;;
75914;SDS011;64593;51.050;13.780;2023-06-19T21:20:16;12.02;;;9.25;;
75914;SDS011;64593;51.050;13.780;2023-06-19T21:25:18;12.93;;;9.75;;
75914;SDS011;64593;51.050;13.780;2023-06-19T21:30:20;13.30;;;9.05;;
75914;SDS011;64593;51.050;13.780;2023-06-19T21:35:22;16.73;;;10.40;;
75914;SDS011;64593;51.050;13.780;2023-06-19T21:40:51;13.23;;;10.48;;
75914;SDS011;64593;51.050;13.780;2023-06-19T21:46:19;14.15;;;9.27;;
75914;SDS011;64593;51.050;13.780;2023-06-19T21:51:20;20.42;;;10.45;;
75914;SDS011;64593;51.050;13.780;2023-06-19T21:56:47;12.00;;;9.43;;
